N7471N KCLM-KR33
Flight info
| Callsign | N7471N |
|---|---|
| Flight time | N/A |
| Altitude | 19000 |
| Route | ELMAA Q1 EASON |
| Aircraft | BT36/L-BDFGLORY/S |
Departure
| Time | 2026-04-15 01:44 |
|---|---|
| Airport | William R Fairchild International Airport (KCLM) |
Arrival
| Time | N/A |
|---|---|
| Airport | KR33 |
| Time | Latitude | Longitude | Altitude | Speed | Heading |
|---|---|---|---|---|---|
| 2026-04-15 01:41 | 48.11600 | -123.49167 | 257 ft | 0 kts | 15° |
| 2026-04-15 01:42 | 48.11625 | -123.49168 | 257 ft | 11 kts | 315° |
| 2026-04-15 01:42 | 48.11657 | -123.49217 | 257 ft | 6 kts | 322° |
| 2026-04-15 01:42 | 48.11692 | -123.49236 | 258 ft | 11 kts | 283° |
| 2026-04-15 01:42 | 48.11729 | -123.49439 | 257 ft | 18 kts | 289° |
| 2026-04-15 01:43 | 48.11763 | -123.49581 | 258 ft | 11 kts | 337° |
| 2026-04-15 01:43 | 48.11852 | -123.49684 | 258 ft | 21 kts | 304° |
| 2026-04-15 01:43 | 48.12114 | -123.49963 | 261 ft | 84 kts | 329° |
| 2026-04-15 01:43 | 48.12700 | -123.50473 | 622 ft | 104 kts | 323° |
| 2026-04-15 01:44 | 48.13313 | -123.51005 | 1240 ft | 105 kts | 357° |
| 2026-04-15 01:44 | 48.13981 | -123.50628 | 1876 ft | 104 kts | 35° |
| 2026-04-15 01:44 | 48.14386 | -123.49565 | 2146 ft | 141 kts | 87° |
| 2026-04-15 01:44 | 48.14338 | -123.47955 | 2343 ft | 166 kts | 94° |
| 2026-04-15 01:45 | 48.14315 | -123.46183 | 2693 ft | 174 kts | 91° |
| 2026-04-15 01:45 | 48.14307 | -123.44360 | 2972 ft | 179 kts | 91° |
| 2026-04-15 01:45 | 48.14299 | -123.42497 | 3338 ft | 179 kts | 92° |
| 2026-04-15 01:45 | 48.14291 | -123.40639 | 3736 ft | 178 kts | 91° |
| 2026-04-15 01:46 | 48.14281 | -123.38793 | 4130 ft | 177 kts | 92° |
| 2026-04-15 01:46 | 48.14269 | -123.36984 | 4649 ft | 171 kts | 92° |
| 2026-04-15 01:46 | 48.14259 | -123.35222 | 5152 ft | 169 kts | 93° |
| 2026-04-15 01:46 | 48.14249 | -123.33469 | 5664 ft | 168 kts | 94° |
| 2026-04-15 01:47 | 48.14236 | -123.31703 | 6185 ft | 171 kts | 95° |
| 2026-04-15 01:47 | 48.14224 | -123.29915 | 6678 ft | 172 kts | 95° |
| 2026-04-15 01:47 | 48.14212 | -123.28120 | 7174 ft | 174 kts | 96° |
| 2026-04-15 01:47 | 48.14202 | -123.26301 | 7677 ft | 175 kts | 96° |
| 2026-04-15 01:48 | 48.14187 | -123.24463 | 8188 ft | 178 kts | 96° |
| 2026-04-15 01:48 | 48.14172 | -123.22609 | 8704 ft | 182 kts | 97° |
| 2026-04-15 01:48 | 48.14157 | -123.20691 | 9234 ft | 186 kts | 97° |
| 2026-04-15 01:48 | 48.14142 | -123.18733 | 9765 ft | 190 kts | 97° |
| 2026-04-15 01:49 | 48.14129 | -123.16744 | 10256 ft | 193 kts | 97° |
| 2026-04-15 01:49 | 48.14112 | -123.14727 | 10753 ft | 195 kts | 97° |
| 2026-04-15 01:49 | 48.14096 | -123.12673 | 11258 ft | 198 kts | 97° |
| 2026-04-15 01:49 | 48.14079 | -123.10597 | 11770 ft | 200 kts | 97° |
| 2026-04-15 01:50 | 48.14061 | -123.08495 | 12292 ft | 203 kts | 97° |
| 2026-04-15 01:50 | 48.14043 | -123.06367 | 12821 ft | 205 kts | 97° |
| 2026-04-15 01:50 | 48.14024 | -123.04220 | 13361 ft | 207 kts | 98° |
| 2026-04-15 01:50 | 48.14004 | -123.02050 | 13876 ft | 209 kts | 99° |
| 2026-04-15 01:51 | 48.13718 | -122.99986 | 14348 ft | 198 kts | 127° |
| 2026-04-15 01:51 | 48.13021 | -122.98302 | 14854 ft | 183 kts | 149° |
| 2026-04-15 01:51 | 48.12095 | -122.97138 | 15362 ft | 166 kts | 169° |
| 2026-04-15 01:51 | 48.11104 | -122.96492 | 15870 ft | 150 kts | 185° |
| 2026-04-15 01:52 | 48.10116 | -122.96272 | 16396 ft | 138 kts | 199° |
| 2026-04-15 01:52 | 48.09205 | -122.96399 | 16928 ft | 127 kts | 210° |
| 2026-04-15 01:52 | 48.08382 | -122.96773 | 17474 ft | 123 kts | 216° |
| 2026-04-15 01:52 | 48.07565 | -122.97167 | 17979 ft | 125 kts | 216° |
| 2026-04-15 01:53 | 48.06739 | -122.97563 | 18469 ft | 125 kts | 217° |
| 2026-04-15 01:53 | 48.05909 | -122.97963 | 18947 ft | 125 kts | 218° |
| 2026-04-15 01:53 | 48.05081 | -122.98361 | 19429 ft | 125 kts | 219° |
| 2026-04-15 01:53 | 48.04255 | -122.98756 | 19918 ft | 124 kts | 220° |
| 2026-04-15 01:54 | 48.03442 | -122.99145 | 20413 ft | 122 kts | 222° |
| 2026-04-15 01:54 | 48.02640 | -122.99529 | 20918 ft | 120 kts | 224° |
| 2026-04-15 01:54 | 48.01846 | -122.99911 | 21433 ft | 119 kts | 225° |
| 2026-04-15 01:54 | 48.01056 | -123.00295 | 21838 ft | 124 kts | 226° |
| 2026-04-15 01:55 | 48.00197 | -123.00813 | 21863 ft | 143 kts | 225° |
| 2026-04-15 01:55 | 47.99162 | -123.01284 | 21862 ft | 167 kts | 216° |
| 2026-04-15 01:55 | 47.98024 | -123.01693 | 21865 ft | 170 kts | 219° |
| 2026-04-15 01:55 | 47.96889 | -123.02289 | 21867 ft | 173 kts | 221° |
| 2026-04-15 01:56 | 47.95734 | -123.02877 | 21859 ft | 181 kts | 219° |
| 2026-04-15 01:56 | 47.94522 | -123.03438 | 21851 ft | 183 kts | 218° |
| 2026-04-15 01:56 | 47.93298 | -123.03993 | 21859 ft | 185 kts | 218° |
| 2026-04-15 01:56 | 47.92066 | -123.04597 | 21858 ft | 187 kts | 218° |
| 2026-04-15 01:57 | 47.90823 | -123.05186 | 21860 ft | 188 kts | 218° |
| 2026-04-15 01:57 | 47.89578 | -123.05788 | 21856 ft | 189 kts | 218° |
| 2026-04-15 01:57 | 47.88314 | -123.06385 | 21861 ft | 191 kts | 217° |
| 2026-04-15 01:57 | 47.87044 | -123.06969 | 21877 ft | 190 kts | 219° |
| 2026-04-15 01:58 | 47.85788 | -123.07608 | 21867 ft | 191 kts | 219° |
| 2026-04-15 01:58 | 47.84526 | -123.08212 | 21863 ft | 191 kts | 218° |
| 2026-04-15 01:58 | 47.83292 | -123.08804 | 21861 ft | 182 kts | 218° |
| 2026-04-15 01:58 | 47.82117 | -123.09310 | 21859 ft | 169 kts | 219° |
| 2026-04-15 01:59 | 47.81022 | -123.09848 | 21850 ft | 164 kts | 221° |
| 2026-04-15 01:59 | 47.79954 | -123.10386 | 21859 ft | 163 kts | 221° |
| 2026-04-15 01:59 | 47.78882 | -123.10867 | 21863 ft | 159 kts | 219° |
| 2026-04-15 01:59 | 47.77852 | -123.11343 | 21789 ft | 153 kts | 220° |
| 2026-04-15 02:00 | 47.76874 | -123.11810 | 21852 ft | 143 kts | 221° |
| 2026-04-15 02:00 | 47.75951 | -123.12298 | 21871 ft | 144 kts | 223° |
| 2026-04-15 02:00 | 47.74978 | -123.12744 | 21878 ft | 147 kts | 222° |
| 2026-04-15 02:00 | 47.74006 | -123.13231 | 21869 ft | 148 kts | 221° |
| 2026-04-15 02:01 | 47.73001 | -123.13661 | 21868 ft | 150 kts | 219° |
| 2026-04-15 02:01 | 47.72017 | -123.14116 | 21867 ft | 146 kts | 223° |
| 2026-04-15 02:01 | 47.71059 | -123.14607 | 21866 ft | 148 kts | 221° |
| 2026-04-15 02:01 | 47.70075 | -123.15047 | 21860 ft | 145 kts | 221° |
| 2026-04-15 02:02 | 47.69122 | -123.15505 | 21873 ft | 144 kts | 223° |
| 2026-04-15 02:02 | 47.68153 | -123.15978 | 21877 ft | 149 kts | 222° |
| 2026-04-15 02:02 | 47.67166 | -123.16458 | 21871 ft | 149 kts | 220° |
| 2026-04-15 02:02 | 47.66179 | -123.16900 | 21875 ft | 147 kts | 220° |
| 2026-04-15 02:03 | 47.65219 | -123.17350 | 21887 ft | 144 kts | 222° |
| 2026-04-15 02:03 | 47.64254 | -123.17808 | 21882 ft | 149 kts | 221° |
| 2026-04-15 02:03 | 47.63259 | -123.18295 | 21878 ft | 151 kts | 221° |
| 2026-04-15 02:03 | 47.62275 | -123.18769 | 21886 ft | 145 kts | 224° |
| 2026-04-15 02:04 | 47.61296 | -123.19226 | 21885 ft | 148 kts | 221° |
| 2026-04-15 02:04 | 47.60316 | -123.19668 | 21879 ft | 146 kts | 221° |
| 2026-04-15 02:04 | 47.59344 | -123.20116 | 21889 ft | 146 kts | 222° |
| 2026-04-15 02:04 | 47.58374 | -123.20579 | 21889 ft | 146 kts | 222° |
| 2026-04-15 02:05 | 47.57402 | -123.21049 | 21885 ft | 148 kts | 222° |
| 2026-04-15 02:05 | 47.56414 | -123.21519 | 21880 ft | 149 kts | 221° |
| 2026-04-15 02:05 | 47.55437 | -123.21976 | 21870 ft | 145 kts | 222° |
| 2026-04-15 02:05 | 47.54485 | -123.22424 | 21877 ft | 146 kts | 221° |
| 2026-04-15 02:06 | 47.53511 | -123.22878 | 21887 ft | 148 kts | 221° |
| 2026-04-15 02:06 | 47.52511 | -123.23343 | 21880 ft | 151 kts | 221° |
| 2026-04-15 02:06 | 47.51514 | -123.23821 | 21868 ft | 149 kts | 221° |
| 2026-04-15 02:06 | 47.50535 | -123.24277 | 21875 ft | 146 kts | 221° |
| 2026-04-15 02:07 | 47.49559 | -123.24738 | 21878 ft | 149 kts | 221° |
| 2026-04-15 02:07 | 47.48567 | -123.25209 | 21839 ft | 151 kts | 221° |
| 2026-04-15 02:07 | 47.47565 | -123.25680 | 21866 ft | 151 kts | 221° |
| 2026-04-15 02:07 | 47.46557 | -123.26143 | 21859 ft | 150 kts | 220° |
| 2026-04-15 02:08 | 47.45567 | -123.26603 | 21870 ft | 149 kts | 221° |
| 2026-04-15 02:08 | 47.44575 | -123.27077 | 21864 ft | 150 kts | 221° |
| 2026-04-15 02:08 | 47.43583 | -123.27546 | 21869 ft | 150 kts | 221° |
| 2026-04-15 02:08 | 47.42590 | -123.28028 | 21872 ft | 152 kts | 220° |
| 2026-04-15 02:09 | 47.41572 | -123.28484 | 21878 ft | 153 kts | 220° |
| 2026-04-15 02:09 | 47.40560 | -123.28958 | 21881 ft | 156 kts | 220° |
| 2026-04-15 02:09 | 47.39527 | -123.29440 | 21880 ft | 156 kts | 220° |
| 2026-04-15 02:09 | 47.38489 | -123.29929 | 21876 ft | 157 kts | 220° |
| 2026-04-15 02:10 | 47.37444 | -123.30414 | 21880 ft | 157 kts | 220° |
| 2026-04-15 02:10 | 47.36405 | -123.30906 | 21876 ft | 157 kts | 220° |
| 2026-04-15 02:10 | 47.35355 | -123.31394 | 21877 ft | 158 kts | 220° |
| 2026-04-15 02:10 | 47.34304 | -123.31880 | 21869 ft | 158 kts | 220° |
| 2026-04-15 02:11 | 47.33263 | -123.32368 | 21872 ft | 157 kts | 220° |
| 2026-04-15 02:11 | 47.32240 | -123.32838 | 21858 ft | 148 kts | 220° |
| 2026-04-15 02:11 | 47.31279 | -123.33269 | 21864 ft | 143 kts | 222° |
| 2026-04-15 02:11 | 47.30648 | -123.33582 | 21868 ft | 146 kts | 222° |
| 2026-04-15 02:12 | 47.29655 | -123.34062 | 21867 ft | 153 kts | 220° |
| 2026-04-15 02:12 | 47.28632 | -123.34533 | 21868 ft | 154 kts | 220° |
| 2026-04-15 02:12 | 47.27606 | -123.35010 | 21870 ft | 155 kts | 220° |
| 2026-04-15 02:12 | 47.26575 | -123.35488 | 21874 ft | 156 kts | 220° |
| 2026-04-15 02:13 | 47.25541 | -123.35969 | 21873 ft | 156 kts | 220° |
| 2026-04-15 02:13 | 47.24501 | -123.36451 | 21874 ft | 156 kts | 220° |
| 2026-04-15 02:13 | 47.23460 | -123.36935 | 21873 ft | 157 kts | 220° |
| 2026-04-15 02:13 | 47.22418 | -123.37419 | 21874 ft | 157 kts | 220° |
| 2026-04-15 02:14 | 47.21377 | -123.37903 | 21872 ft | 157 kts | 220° |
| 2026-04-15 02:14 | 47.20334 | -123.38387 | 21872 ft | 157 kts | 220° |
| 2026-04-15 02:14 | 47.19291 | -123.38870 | 21826 ft | 157 kts | 220° |
| 2026-04-15 02:14 | 47.18259 | -123.39347 | 21863 ft | 156 kts | 220° |
| 2026-04-15 02:15 | 47.17220 | -123.39832 | 21865 ft | 157 kts | 220° |
| 2026-04-15 02:15 | 47.16192 | -123.40310 | 21862 ft | 157 kts | 220° |
| 2026-04-15 02:15 | 47.15146 | -123.40793 | 21864 ft | 158 kts | 219° |
| 2026-04-15 02:15 | 47.13963 | -123.40967 | 21865 ft | 183 kts | 202° |
| 2026-04-15 02:16 | 47.12687 | -123.40892 | 21872 ft | 183 kts | 202° |
| 2026-04-15 02:16 | 47.11412 | -123.40840 | 21875 ft | 183 kts | 202° |
| 2026-04-15 02:16 | 47.10133 | -123.40797 | 21895 ft | 184 kts | 203° |
| 2026-04-15 02:16 | 47.08852 | -123.40756 | 21908 ft | 184 kts | 203° |
| 2026-04-15 02:17 | 47.07572 | -123.40714 | 21904 ft | 184 kts | 202° |
| 2026-04-15 02:17 | 47.06295 | -123.40670 | 21902 ft | 183 kts | 202° |
| 2026-04-15 02:17 | 47.05020 | -123.40625 | 21902 ft | 182 kts | 203° |
| 2026-04-15 02:17 | 47.03754 | -123.40586 | 21908 ft | 182 kts | 203° |
| 2026-04-15 02:18 | 47.02480 | -123.40548 | 21901 ft | 184 kts | 202° |
| 2026-04-15 02:18 | 47.01216 | -123.40500 | 21904 ft | 184 kts | 202° |
| 2026-04-15 02:18 | 46.99939 | -123.40458 | 21884 ft | 183 kts | 202° |
| 2026-04-15 02:18 | 46.98665 | -123.40418 | 21897 ft | 184 kts | 202° |
| 2026-04-15 02:19 | 46.97380 | -123.40377 | 21899 ft | 185 kts | 201° |
| 2026-04-15 02:19 | 46.96091 | -123.40334 | 21899 ft | 186 kts | 201° |
| 2026-04-15 02:19 | 46.94797 | -123.40288 | 21902 ft | 187 kts | 201° |
| 2026-04-15 02:19 | 46.93501 | -123.40243 | 21901 ft | 184 kts | 201° |
| 2026-04-15 02:20 | 46.92211 | -123.40210 | 21900 ft | 186 kts | 201° |
| 2026-04-15 02:20 | 46.90927 | -123.40170 | 21903 ft | 188 kts | 201° |
| 2026-04-15 02:20 | 46.89618 | -123.40123 | 21901 ft | 187 kts | 200° |
| 2026-04-15 02:20 | 46.88320 | -123.40071 | 21907 ft | 185 kts | 201° |
| 2026-04-15 02:21 | 46.87030 | -123.40036 | 21906 ft | 186 kts | 201° |
| 2026-04-15 02:21 | 46.85732 | -123.40000 | 21906 ft | 187 kts | 201° |
| 2026-04-15 02:21 | 46.84430 | -123.39961 | 21910 ft | 188 kts | 201° |
| 2026-04-15 02:21 | 46.83122 | -123.39915 | 21915 ft | 188 kts | 201° |
| 2026-04-15 02:22 | 46.81811 | -123.39872 | 21914 ft | 188 kts | 201° |
| 2026-04-15 02:22 | 46.80526 | -123.39820 | 21910 ft | 186 kts | 201° |
| 2026-04-15 02:22 | 46.79238 | -123.39795 | 21918 ft | 185 kts | 202° |
| 2026-04-15 02:23 | 46.76639 | -123.39705 | 21914 ft | 187 kts | 201° |
| 2026-04-15 02:23 | 46.75343 | -123.39674 | 21921 ft | 187 kts | 201° |
| 2026-04-15 02:23 | 46.74036 | -123.39644 | 21925 ft | 189 kts | 201° |
| 2026-04-15 02:23 | 46.72716 | -123.39595 | 21926 ft | 189 kts | 201° |
| 2026-04-15 02:24 | 46.71400 | -123.39553 | 21927 ft | 189 kts | 201° |
| 2026-04-15 02:24 | 46.70082 | -123.39504 | 21900 ft | 188 kts | 200° |
| 2026-04-15 02:24 | 46.68780 | -123.39459 | 21923 ft | 186 kts | 200° |
| 2026-04-15 02:24 | 46.67485 | -123.39427 | 21932 ft | 186 kts | 201° |
| 2026-04-15 02:25 | 46.66198 | -123.39392 | 21930 ft | 188 kts | 200° |
| 2026-04-15 02:25 | 46.64884 | -123.39344 | 21929 ft | 189 kts | 200° |
| 2026-04-15 02:25 | 46.63569 | -123.39303 | 21927 ft | 188 kts | 200° |
| 2026-04-15 02:25 | 46.62256 | -123.39260 | 21905 ft | 188 kts | 200° |
| 2026-04-15 02:26 | 46.60954 | -123.39218 | 21926 ft | 188 kts | 200° |
| 2026-04-15 02:26 | 46.59645 | -123.39181 | 21929 ft | 188 kts | 200° |
| 2026-04-15 02:26 | 46.58336 | -123.39140 | 21926 ft | 189 kts | 199° |
| 2026-04-15 02:26 | 46.57025 | -123.39094 | 21926 ft | 188 kts | 200° |
| 2026-04-15 02:27 | 46.55717 | -123.39060 | 21930 ft | 188 kts | 199° |
| 2026-04-15 02:27 | 46.54406 | -123.39026 | 21929 ft | 188 kts | 199° |
| 2026-04-15 02:27 | 46.53094 | -123.38977 | 21929 ft | 188 kts | 199° |
| 2026-04-15 02:27 | 46.51783 | -123.38932 | 21922 ft | 188 kts | 200° |
| 2026-04-15 02:28 | 46.50497 | -123.38900 | 21936 ft | 186 kts | 200° |
| 2026-04-15 02:28 | 46.49201 | -123.38853 | 21936 ft | 187 kts | 200° |
| 2026-04-15 02:28 | 46.47898 | -123.38813 | 21941 ft | 188 kts | 200° |
| 2026-04-15 02:28 | 46.46588 | -123.38784 | 21937 ft | 189 kts | 199° |
| 2026-04-15 02:29 | 46.45268 | -123.38738 | 21928 ft | 190 kts | 198° |
| 2026-04-15 02:29 | 46.43944 | -123.38692 | 21924 ft | 190 kts | 199° |
| 2026-04-15 02:29 | 46.42618 | -123.38646 | 21925 ft | 189 kts | 199° |
| 2026-04-15 02:29 | 46.41304 | -123.38609 | 21939 ft | 188 kts | 199° |
| 2026-04-15 02:30 | 46.39995 | -123.38561 | 21942 ft | 188 kts | 199° |
| 2026-04-15 02:30 | 46.38683 | -123.38531 | 21944 ft | 189 kts | 199° |
| 2026-04-15 02:30 | 46.37367 | -123.38486 | 21947 ft | 189 kts | 199° |
| 2026-04-15 02:30 | 46.36049 | -123.38445 | 21944 ft | 189 kts | 199° |
| 2026-04-15 02:31 | 46.34735 | -123.38412 | 21952 ft | 190 kts | 199° |
| 2026-04-15 02:31 | 46.33408 | -123.38375 | 21953 ft | 191 kts | 198° |
| 2026-04-15 02:31 | 46.32079 | -123.38330 | 21961 ft | 191 kts | 198° |
| 2026-04-15 02:31 | 46.30769 | -123.38282 | 21958 ft | 191 kts | 198° |
| 2026-04-15 02:32 | 46.29447 | -123.38242 | 21958 ft | 190 kts | 199° |
| 2026-04-15 02:32 | 46.28124 | -123.38204 | 21956 ft | 190 kts | 198° |
| 2026-04-15 02:32 | 46.26803 | -123.38169 | 21959 ft | 190 kts | 199° |
| 2026-04-15 02:32 | 46.25476 | -123.38125 | 21959 ft | 191 kts | 198° |
| 2026-04-15 02:33 | 46.24148 | -123.38082 | 21961 ft | 191 kts | 198° |
| 2026-04-15 02:33 | 46.22821 | -123.38038 | 21961 ft | 190 kts | 198° |
| 2026-04-15 02:33 | 46.21503 | -123.37997 | 21965 ft | 189 kts | 198° |
| 2026-04-15 02:33 | 46.20186 | -123.37959 | 21968 ft | 189 kts | 198° |
| 2026-04-15 02:34 | 46.18882 | -123.37920 | 21969 ft | 190 kts | 198° |
| 2026-04-15 02:34 | 46.17564 | -123.37879 | 21962 ft | 189 kts | 198° |
| 2026-04-15 02:34 | 46.16246 | -123.37838 | 21962 ft | 189 kts | 198° |
| 2026-04-15 02:34 | 46.14931 | -123.37798 | 21962 ft | 189 kts | 198° |
| 2026-04-15 02:35 | 46.13616 | -123.37757 | 21960 ft | 189 kts | 198° |
| 2026-04-15 02:35 | 46.12298 | -123.37718 | 21961 ft | 189 kts | 198° |
| 2026-04-15 02:35 | 46.10982 | -123.37677 | 21964 ft | 189 kts | 198° |
| 2026-04-15 02:35 | 46.09664 | -123.37636 | 21964 ft | 190 kts | 198° |
| 2026-04-15 02:36 | 46.08345 | -123.37596 | 21968 ft | 189 kts | 198° |
| 2026-04-15 02:36 | 46.07026 | -123.37555 | 21965 ft | 189 kts | 198° |
| 2026-04-15 02:36 | 46.05711 | -123.37513 | 21967 ft | 189 kts | 198° |
| 2026-04-15 02:36 | 46.04399 | -123.37476 | 21962 ft | 188 kts | 198° |
| 2026-04-15 02:37 | 46.03091 | -123.37435 | 21973 ft | 188 kts | 198° |
| 2026-04-15 02:37 | 46.01783 | -123.37392 | 21971 ft | 188 kts | 198° |
| 2026-04-15 02:37 | 46.00474 | -123.37357 | 21972 ft | 188 kts | 198° |
| 2026-04-15 02:37 | 45.99161 | -123.37323 | 21975 ft | 190 kts | 198° |
| 2026-04-15 02:38 | 45.97840 | -123.37280 | 21974 ft | 190 kts | 198° |
| 2026-04-15 02:38 | 45.96519 | -123.37233 | 21975 ft | 189 kts | 198° |
| 2026-04-15 02:38 | 45.95201 | -123.37198 | 21974 ft | 190 kts | 198° |
| 2026-04-15 02:38 | 45.93897 | -123.37154 | 21981 ft | 189 kts | 198° |
| 2026-04-15 02:39 | 45.92582 | -123.37110 | 21980 ft | 188 kts | 198° |
| 2026-04-15 02:39 | 45.91275 | -123.37074 | 21981 ft | 188 kts | 198° |
| 2026-04-15 02:39 | 45.89969 | -123.37043 | 21976 ft | 188 kts | 198° |
| 2026-04-15 02:39 | 45.88663 | -123.36994 | 21967 ft | 188 kts | 198° |
| 2026-04-15 02:40 | 45.87356 | -123.36953 | 21963 ft | 186 kts | 198° |
| 2026-04-15 02:40 | 45.86063 | -123.36918 | 21966 ft | 187 kts | 198° |
| 2026-04-15 02:40 | 45.84759 | -123.36881 | 21978 ft | 188 kts | 198° |
| 2026-04-15 02:40 | 45.83464 | -123.36839 | 21975 ft | 187 kts | 198° |
| 2026-04-15 02:41 | 45.82162 | -123.36796 | 21978 ft | 187 kts | 198° |
| 2026-04-15 02:41 | 45.80862 | -123.36758 | 21979 ft | 187 kts | 198° |
| 2026-04-15 02:41 | 45.79553 | -123.36722 | 21982 ft | 188 kts | 198° |
| 2026-04-15 02:41 | 45.78242 | -123.36679 | 21975 ft | 189 kts | 197° |
| 2026-04-15 02:42 | 45.76933 | -123.36639 | 21976 ft | 188 kts | 198° |
| 2026-04-15 02:42 | 45.75623 | -123.36603 | 21963 ft | 188 kts | 198° |
| 2026-04-15 02:42 | 45.74324 | -123.36562 | 21993 ft | 186 kts | 197° |
| 2026-04-15 02:42 | 45.73021 | -123.36526 | 21991 ft | 187 kts | 197° |
| 2026-04-15 02:43 | 45.71717 | -123.36481 | 21993 ft | 188 kts | 197° |
| 2026-04-15 02:43 | 45.70426 | -123.36442 | 21992 ft | 188 kts | 197° |
| 2026-04-15 02:43 | 45.69122 | -123.36406 | 21995 ft | 187 kts | 197° |
| 2026-04-15 02:43 | 45.67817 | -123.36365 | 21996 ft | 188 kts | 197° |
| 2026-04-15 02:44 | 45.66505 | -123.36331 | 22000 ft | 188 kts | 197° |
| 2026-04-15 02:44 | 45.65194 | -123.36282 | 22000 ft | 189 kts | 198° |
| 2026-04-15 02:44 | 45.63888 | -123.36245 | 22000 ft | 188 kts | 197° |
| 2026-04-15 02:44 | 45.62575 | -123.36209 | 22003 ft | 189 kts | 197° |
| 2026-04-15 02:45 | 45.61260 | -123.36168 | 22006 ft | 189 kts | 197° |
| 2026-04-15 02:45 | 45.59945 | -123.36130 | 22008 ft | 189 kts | 197° |
| 2026-04-15 02:45 | 45.58625 | -123.36092 | 22005 ft | 190 kts | 197° |
| 2026-04-15 02:45 | 45.57307 | -123.36050 | 22017 ft | 190 kts | 197° |
| 2026-04-15 02:46 | 45.55985 | -123.36008 | 22012 ft | 189 kts | 197° |
| 2026-04-15 02:46 | 45.54689 | -123.35969 | 22011 ft | 189 kts | 197° |
| 2026-04-15 02:46 | 45.53358 | -123.35929 | 22012 ft | 189 kts | 197° |
| 2026-04-15 02:46 | 45.52063 | -123.35895 | 22004 ft | 189 kts | 197° |
| 2026-04-15 02:47 | 45.50740 | -123.35858 | 22000 ft | 191 kts | 196° |
| 2026-04-15 02:47 | 45.49405 | -123.35810 | 22002 ft | 192 kts | 196° |
| 2026-04-15 02:47 | 45.48076 | -123.35762 | 22014 ft | 191 kts | 196° |
| 2026-04-15 02:47 | 45.46752 | -123.35726 | 22015 ft | 191 kts | 197° |
| 2026-04-15 02:48 | 45.45422 | -123.35699 | 22015 ft | 191 kts | 197° |
| 2026-04-15 02:48 | 45.44092 | -123.35657 | 22024 ft | 192 kts | 196° |
| 2026-04-15 02:48 | 45.42756 | -123.35614 | 22026 ft | 192 kts | 196° |
| 2026-04-15 02:48 | 45.41417 | -123.35573 | 22027 ft | 192 kts | 196° |
| 2026-04-15 02:49 | 45.40076 | -123.35536 | 22031 ft | 193 kts | 196° |
| 2026-04-15 02:49 | 45.38730 | -123.35492 | 22038 ft | 193 kts | 196° |
| 2026-04-15 02:49 | 45.37396 | -123.35456 | 22038 ft | 190 kts | 197° |
| 2026-04-15 02:49 | 45.36071 | -123.35414 | 22039 ft | 191 kts | 196° |
| 2026-04-15 02:50 | 45.34743 | -123.35364 | 22034 ft | 191 kts | 195° |
| 2026-04-15 02:50 | 45.33429 | -123.35319 | 22039 ft | 187 kts | 197° |
| 2026-04-15 02:50 | 45.32136 | -123.35302 | 22034 ft | 188 kts | 196° |
| 2026-04-15 02:50 | 45.30826 | -123.35256 | 22042 ft | 189 kts | 196° |
| 2026-04-15 02:51 | 45.29511 | -123.35217 | 22018 ft | 189 kts | 196° |
| 2026-04-15 02:51 | 45.28200 | -123.35178 | 22033 ft | 189 kts | 196° |
| 2026-04-15 02:51 | 45.26882 | -123.35141 | 22035 ft | 190 kts | 195° |
| 2026-04-15 02:51 | 45.25557 | -123.35098 | 22035 ft | 190 kts | 195° |
| 2026-04-15 02:52 | 45.24235 | -123.35062 | 22036 ft | 190 kts | 195° |
| 2026-04-15 02:52 | 45.22911 | -123.35025 | 22039 ft | 191 kts | 195° |
| 2026-04-15 02:52 | 45.21577 | -123.34984 | 22042 ft | 192 kts | 195° |
| 2026-04-15 02:52 | 45.20235 | -123.34944 | 22043 ft | 193 kts | 195° |
| 2026-04-15 02:53 | 45.18904 | -123.34894 | 22042 ft | 189 kts | 196° |
| 2026-04-15 02:53 | 45.17596 | -123.34872 | 22045 ft | 188 kts | 196° |
| 2026-04-15 02:53 | 45.16291 | -123.34872 | 22043 ft | 181 kts | 205° |
| 2026-04-15 02:53 | 45.15306 | -123.35633 | 22038 ft | 153 kts | 237° |
| 2026-04-15 02:54 | 45.14577 | -123.36804 | 21786 ft | 165 kts | 234° |
| 2026-04-15 02:54 | 45.13669 | -123.37867 | 21536 ft | 176 kts | 228° |
| 2026-04-15 02:54 | 45.12650 | -123.38876 | 21291 ft | 182 kts | 226° |
| 2026-04-15 02:54 | 45.11591 | -123.39880 | 21040 ft | 184 kts | 226° |
| 2026-04-15 02:55 | 45.10526 | -123.40897 | 20793 ft | 186 kts | 225° |
| 2026-04-15 02:55 | 45.09452 | -123.41915 | 20547 ft | 186 kts | 225° |
| 2026-04-15 02:55 | 45.08379 | -123.42940 | 20306 ft | 186 kts | 225° |
| 2026-04-15 02:55 | 45.07305 | -123.43967 | 20059 ft | 186 kts | 225° |
| 2026-04-15 02:56 | 45.06230 | -123.44992 | 19818 ft | 186 kts | 225° |
| 2026-04-15 02:56 | 45.05161 | -123.46013 | 19576 ft | 186 kts | 225° |
| 2026-04-15 02:56 | 45.04092 | -123.47035 | 19336 ft | 185 kts | 225° |
| 2026-04-15 02:56 | 45.03023 | -123.48051 | 19096 ft | 184 kts | 225° |
| 2026-04-15 02:57 | 45.01963 | -123.49060 | 18835 ft | 184 kts | 225° |
| 2026-04-15 02:57 | 45.00913 | -123.50064 | 18603 ft | 184 kts | 225° |
| 2026-04-15 02:57 | 44.99836 | -123.51092 | 18366 ft | 184 kts | 225° |
| 2026-04-15 02:57 | 44.98787 | -123.52089 | 18103 ft | 184 kts | 225° |
| 2026-04-15 02:58 | 44.97719 | -123.53101 | 17836 ft | 184 kts | 224° |
| 2026-04-15 02:58 | 44.96662 | -123.54108 | 17569 ft | 182 kts | 225° |
| 2026-04-15 02:58 | 44.95609 | -123.55115 | 17283 ft | 183 kts | 225° |
| 2026-04-15 02:58 | 44.94909 | -123.55781 | 17116 ft | 182 kts | 225° |
| 2026-04-15 02:59 | 44.93857 | -123.56775 | 16851 ft | 182 kts | 224° |
| 2026-04-15 02:59 | 44.92813 | -123.57781 | 16590 ft | 182 kts | 224° |
| 2026-04-15 02:59 | 44.91758 | -123.58766 | 16335 ft | 182 kts | 224° |
| 2026-04-15 02:59 | 44.90711 | -123.59758 | 16083 ft | 182 kts | 224° |
| 2026-04-15 03:00 | 44.89666 | -123.60761 | 15822 ft | 181 kts | 224° |
| 2026-04-15 03:00 | 44.88624 | -123.61746 | 15574 ft | 180 kts | 223° |
| 2026-04-15 03:00 | 44.87586 | -123.62710 | 15326 ft | 178 kts | 224° |
| 2026-04-15 03:00 | 44.86561 | -123.63689 | 15076 ft | 177 kts | 224° |
| 2026-04-15 03:01 | 44.85537 | -123.64666 | 14834 ft | 178 kts | 223° |
| 2026-04-15 03:01 | 44.84511 | -123.65637 | 14591 ft | 177 kts | 223° |
| 2026-04-15 03:01 | 44.83489 | -123.66601 | 14352 ft | 176 kts | 223° |
| 2026-04-15 03:01 | 44.82487 | -123.67547 | 14111 ft | 175 kts | 223° |
| 2026-04-15 03:02 | 44.81475 | -123.68491 | 13891 ft | 175 kts | 223° |
| 2026-04-15 03:02 | 44.80467 | -123.69452 | 13623 ft | 175 kts | 223° |
| 2026-04-15 03:02 | 44.79465 | -123.70409 | 13352 ft | 174 kts | 223° |
| 2026-04-15 03:02 | 44.78465 | -123.71345 | 13087 ft | 172 kts | 223° |
| 2026-04-15 03:03 | 44.77466 | -123.72287 | 12779 ft | 174 kts | 223° |
| 2026-04-15 03:03 | 44.76407 | -123.73289 | 12269 ft | 195 kts | 222° |
| 2026-04-15 03:03 | 44.75260 | -123.74368 | 11759 ft | 197 kts | 221° |
| 2026-04-15 03:03 | 44.74133 | -123.75451 | 11264 ft | 196 kts | 221° |
| 2026-04-15 03:04 | 44.72996 | -123.76515 | 10772 ft | 196 kts | 221° |
| 2026-04-15 03:04 | 44.71907 | -123.77602 | 10304 ft | 189 kts | 225° |
| 2026-04-15 03:04 | 44.70787 | -123.78608 | 9804 ft | 192 kts | 218° |
| 2026-04-15 03:04 | 44.69677 | -123.79618 | 9282 ft | 186 kts | 226° |
| 2026-04-15 03:05 | 44.68585 | -123.80604 | 8726 ft | 186 kts | 216° |
| 2026-04-15 03:05 | 44.67560 | -123.81665 | 8089 ft | 182 kts | 226° |
| 2026-04-15 03:05 | 44.66517 | -123.82651 | 7611 ft | 178 kts | 216° |
| 2026-04-15 03:05 | 44.65478 | -123.83546 | 7128 ft | 173 kts | 219° |
| 2026-04-15 03:06 | 44.64486 | -123.84468 | 6650 ft | 168 kts | 216° |
| 2026-04-15 03:06 | 44.63541 | -123.85362 | 6160 ft | 165 kts | 220° |
| 2026-04-15 03:06 | 44.62600 | -123.86285 | 5594 ft | 164 kts | 219° |
| 2026-04-15 03:06 | 44.61668 | -123.87149 | 4945 ft | 156 kts | 216° |
| 2026-04-15 03:07 | 44.60771 | -123.87943 | 4299 ft | 150 kts | 218° |
| 2026-04-15 03:07 | 44.59915 | -123.88777 | 3624 ft | 148 kts | 219° |
| 2026-04-15 03:07 | 44.59080 | -123.89596 | 3039 ft | 146 kts | 218° |
| 2026-04-15 03:07 | 44.58288 | -123.90312 | 2810 ft | 130 kts | 215° |
| 2026-04-15 03:08 | 44.57531 | -123.90969 | 2433 ft | 127 kts | 218° |
| 2026-04-15 03:08 | 44.56846 | -123.91743 | 2039 ft | 129 kts | 218° |
| 2026-04-15 03:08 | 44.56050 | -123.92386 | 1644 ft | 132 kts | 216° |
| 2026-04-15 03:08 | 44.55329 | -123.93067 | 1469 ft | 122 kts | 213° |
| 2026-04-15 03:09 | 44.54648 | -123.93693 | 1492 ft | 113 kts | 216° |
| 2026-04-15 03:09 | 44.53991 | -123.94334 | 1469 ft | 121 kts | 215° |
| 2026-04-15 03:09 | 44.53307 | -123.95003 | 1505 ft | 123 kts | 208° |
| 2026-04-15 03:09 | 44.52530 | -123.95511 | 1475 ft | 121 kts | 220° |
| 2026-04-15 03:10 | 44.51889 | -123.96289 | 1504 ft | 127 kts | 219° |
| 2026-04-15 03:10 | 44.51150 | -123.97001 | 1497 ft | 131 kts | 213° |
| 2026-04-15 03:10 | 44.50355 | -123.97680 | 1501 ft | 137 kts | 215° |
| 2026-04-15 03:10 | 44.49578 | -123.98465 | 1488 ft | 133 kts | 215° |
| 2026-04-15 03:11 | 44.48794 | -123.99102 | 1532 ft | 129 kts | 211° |
| 2026-04-15 03:11 | 44.48020 | -123.99818 | 1491 ft | 135 kts | 216° |
| 2026-04-15 03:11 | 44.47273 | -124.00575 | 1489 ft | 131 kts | 217° |
| 2026-04-15 03:11 | 44.46539 | -124.01278 | 1483 ft | 122 kts | 215° |
| 2026-04-15 03:12 | 44.45879 | -124.01925 | 1484 ft | 110 kts | 216° |
| 2026-04-15 03:12 | 44.45259 | -124.02476 | 1485 ft | 103 kts | 212° |
| 2026-04-15 03:12 | 44.44656 | -124.02989 | 1490 ft | 99 kts | 214° |
| 2026-04-15 03:12 | 44.44103 | -124.03516 | 1489 ft | 97 kts | 215° |
| 2026-04-15 03:13 | 44.43481 | -124.04099 | 1492 ft | 115 kts | 216° |
| 2026-04-15 03:13 | 44.42798 | -124.04725 | 1472 ft | 117 kts | 213° |
| 2026-04-15 03:13 | 44.42140 | -124.05300 | 1363 ft | 106 kts | 213° |
| 2026-04-15 03:13 | 44.41534 | -124.05845 | 1203 ft | 102 kts | 215° |
| 2026-04-15 03:14 | 44.40979 | -124.06396 | 993 ft | 96 kts | 215° |
| 2026-04-15 03:14 | 44.40513 | -124.07135 | 688 ft | 104 kts | 222° |
| 2026-04-15 03:14 | 44.40014 | -124.07823 | 571 ft | 99 kts | 210° |
| 2026-04-15 03:14 | 44.39377 | -124.08118 | 465 ft | 95 kts | 205° |
| 2026-04-15 03:15 | 44.38814 | -124.08522 | 166 ft | 96 kts | 180° |
| 2026-04-15 03:15 | 44.38208 | -124.08511 | 126 ft | 86 kts | 181° |
| 2026-04-15 03:15 | 44.37631 | -124.08887 | 324 ft | 101 kts | 218° |
| 2026-04-15 03:15 | 44.36961 | -124.09119 | 390 ft | 119 kts | 144° |
| 2026-04-15 03:16 | 44.37119 | -124.08048 | 477 ft | 139 kts | 43° |
| 2026-04-15 03:16 | 44.38014 | -124.07883 | 350 ft | 132 kts | 316° |
| 2026-04-15 03:16 | 44.38600 | -124.08834 | 310 ft | 131 kts | 281° |
| 2026-04-15 03:16 | 44.38586 | -124.09933 | 419 ft | 101 kts | 219° |
| 2026-04-15 03:17 | 44.37992 | -124.09728 | 283 ft | 118 kts | 124° |
| 2026-04-15 03:17 | 44.38049 | -124.08573 | 268 ft | 133 kts | 56° |
| 2026-04-15 03:17 | 44.38881 | -124.08097 | 349 ft | 126 kts | 38° |
| 2026-04-15 03:17 | 44.39638 | -124.07615 | 503 ft | 120 kts | 338° |
| 2026-04-15 03:18 | 44.39680 | -124.08407 | 158 ft | 94 kts | 189° |
| 2026-04-15 03:18 | 44.39086 | -124.08122 | 241 ft | 92 kts | 151° |
| 2026-04-15 03:18 | 44.38476 | -124.08115 | 525 ft | 94 kts | 181° |
| 2026-04-15 03:18 | 44.37732 | -124.08460 | 462 ft | 131 kts | 220° |
| 2026-04-15 03:19 | 44.37630 | -124.09745 | 539 ft | 157 kts | 291° |
| 2026-04-15 03:19 | 44.38755 | -124.09667 | 213 ft | 187 kts | 34° |
| 2026-04-15 03:19 | 44.39948 | -124.09145 | 538 ft | 176 kts | 7° |
| 2026-04-15 03:19 | 44.41179 | -124.08684 | 754 ft | 190 kts | 15° |
| 2026-04-15 03:20 | 44.42517 | -124.08216 | 803 ft | 205 kts | 13° |
| 2026-04-15 03:20 | 44.43910 | -124.07733 | 876 ft | 208 kts | 11° |
| 2026-04-15 03:20 | 44.45295 | -124.07214 | 1150 ft | 205 kts | 17° |
| 2026-04-15 03:20 | 44.46643 | -124.06616 | 1428 ft | 203 kts | 13° |
| 2026-04-15 03:21 | 44.48002 | -124.06016 | 1701 ft | 206 kts | 14° |
| 2026-04-15 03:21 | 44.50757 | -124.04772 | 2214 ft | 209 kts | 10° |
| 2026-04-15 03:21 | 44.52145 | -124.04108 | 2466 ft | 212 kts | 15° |
| 2026-04-15 03:22 | 44.53537 | -124.03502 | 2718 ft | 210 kts | 12° |
| 2026-04-15 03:22 | 44.54926 | -124.02889 | 3000 ft | 210 kts | 15° |
| 2026-04-15 03:22 | 44.56294 | -124.02132 | 3257 ft | 208 kts | 18° |
| 2026-04-15 03:22 | 44.57653 | -124.01428 | 3517 ft | 209 kts | 14° |
| 2026-04-15 03:23 | 44.59014 | -124.00708 | 3767 ft | 209 kts | 13° |
| 2026-04-15 03:23 | 44.60289 | -123.99678 | 4014 ft | 217 kts | 38° |
| 2026-04-15 03:23 | 44.61391 | -123.98228 | 4189 ft | 221 kts | 39° |
| 2026-04-15 03:23 | 44.62542 | -123.96767 | 4201 ft | 225 kts | 41° |
| 2026-04-15 03:24 | 44.63723 | -123.95293 | 4194 ft | 228 kts | 37° |
| 2026-04-15 03:24 | 44.64914 | -123.93860 | 4201 ft | 222 kts | 37° |
| 2026-04-15 03:24 | 44.66083 | -123.92481 | 4183 ft | 217 kts | 37° |
| 2026-04-15 03:24 | 44.67231 | -123.91151 | 4188 ft | 212 kts | 36° |
| 2026-04-15 03:25 | 44.68344 | -123.89839 | 4198 ft | 210 kts | 38° |
| 2026-04-15 03:25 | 44.69472 | -123.88472 | 4068 ft | 217 kts | 37° |
| 2026-04-15 03:25 | 44.70632 | -123.87104 | 3989 ft | 218 kts | 40° |
| 2026-04-15 03:25 | 44.71739 | -123.85666 | 3995 ft | 216 kts | 37° |
| 2026-04-15 03:26 | 44.72921 | -123.84367 | 3966 ft | 214 kts | 34° |
| 2026-04-15 03:26 | 44.74063 | -123.83131 | 3992 ft | 211 kts | 29° |
| 2026-04-15 03:26 | 44.75397 | -123.82380 | 3983 ft | 205 kts | 3° |
| 2026-04-15 03:26 | 44.76773 | -123.82363 | 3980 ft | 192 kts | 339° |
| 2026-04-15 03:27 | 44.78003 | -123.82959 | 3981 ft | 183 kts | 320° |
| 2026-04-15 03:27 | 44.79007 | -123.84002 | 3752 ft | 173 kts | 303° |
| 2026-04-15 03:27 | 44.79685 | -123.85298 | 3508 ft | 162 kts | 293° |
| 2026-04-15 03:27 | 44.80277 | -123.86614 | 3236 ft | 155 kts | 287° |
| 2026-04-15 03:28 | 44.80837 | -123.87919 | 2997 ft | 154 kts | 288° |
| 2026-04-15 03:28 | 44.81344 | -123.89277 | 2724 ft | 157 kts | 282° |
| 2026-04-15 03:28 | 44.81806 | -123.90660 | 2527 ft | 150 kts | 282° |
| 2026-04-15 03:28 | 44.82108 | -123.91925 | 2103 ft | 135 kts | 274° |
| 2026-04-15 03:29 | 44.82481 | -123.93159 | 2039 ft | 135 kts | 278° |
| 2026-04-15 03:29 | 44.82793 | -123.94326 | 2076 ft | 124 kts | 272° |
| 2026-04-15 03:29 | 44.83055 | -123.95446 | 2065 ft | 118 kts | 273° |
| 2026-04-15 03:29 | 44.83288 | -123.96572 | 2062 ft | 122 kts | 271° |
| 2026-04-15 03:30 | 44.83483 | -123.97725 | 2060 ft | 120 kts | 269° |
| 2026-04-15 03:30 | 44.83652 | -123.98859 | 2063 ft | 117 kts | 267° |
| 2026-04-15 03:30 | 44.83796 | -124.00003 | 2071 ft | 119 kts | 266° |
| 2026-04-15 03:30 | 44.83924 | -124.01160 | 2068 ft | 122 kts | 265° |
| 2026-04-15 03:31 | 44.83995 | -124.02317 | 2046 ft | 116 kts | 262° |
| 2026-04-15 03:31 | 44.83997 | -124.03413 | 2071 ft | 118 kts | 266° |
| 2026-04-15 03:31 | 44.84108 | -124.04564 | 2070 ft | 115 kts | 259° |
| 2026-04-15 03:31 | 44.84114 | -124.05675 | 2074 ft | 113 kts | 258° |
| 2026-04-15 03:32 | 44.83969 | -124.06721 | 2095 ft | 107 kts | 232° |
| 2026-04-15 03:32 | 44.83393 | -124.07416 | 2077 ft | 114 kts | 208° |
| 2026-04-15 03:32 | 44.82569 | -124.07504 | 2048 ft | 122 kts | 186° |
| 2026-04-15 03:32 | 44.81736 | -124.07453 | 2071 ft | 122 kts | 188° |
| 2026-04-15 03:33 | 44.80878 | -124.07401 | 2074 ft | 126 kts | 187° |
| 2026-04-15 03:33 | 44.79985 | -124.07340 | 2081 ft | 132 kts | 186° |
| 2026-04-15 03:33 | 44.79046 | -124.07265 | 2076 ft | 137 kts | 186° |
| 2026-04-15 03:33 | 44.78101 | -124.07204 | 2077 ft | 133 kts | 188° |
| 2026-04-15 03:34 | 44.77172 | -124.07143 | 2095 ft | 134 kts | 186° |
| 2026-04-15 03:34 | 44.76220 | -124.07084 | 2082 ft | 138 kts | 188° |
| 2026-04-15 03:34 | 44.75264 | -124.07067 | 2076 ft | 138 kts | 187° |
| 2026-04-15 03:34 | 44.74294 | -124.06968 | 2086 ft | 139 kts | 185° |
| 2026-04-15 03:35 | 44.73329 | -124.06892 | 2088 ft | 139 kts | 186° |
| 2026-04-15 03:35 | 44.72377 | -124.06821 | 2094 ft | 138 kts | 187° |
| 2026-04-15 03:35 | 44.71403 | -124.06770 | 2091 ft | 142 kts | 187° |
| 2026-04-15 03:35 | 44.70395 | -124.06696 | 1933 ft | 149 kts | 184° |
| 2026-04-15 03:36 | 44.69341 | -124.06641 | 1736 ft | 154 kts | 186° |
| 2026-04-15 03:36 | 44.68266 | -124.06482 | 1530 ft | 155 kts | 177° |
| 2026-04-15 03:36 | 44.67238 | -124.06455 | 1404 ft | 136 kts | 192° |
| 2026-04-15 03:36 | 44.66363 | -124.06431 | 1389 ft | 115 kts | 186° |
| 2026-04-15 03:37 | 44.65612 | -124.06377 | 1384 ft | 102 kts | 189° |
| 2026-04-15 03:37 | 44.64959 | -124.06320 | 1380 ft | 89 kts | 184° |
| 2026-04-15 03:37 | 44.64346 | -124.06200 | 1258 ft | 88 kts | 189° |
| 2026-04-15 03:37 | 44.63743 | -124.06170 | 1124 ft | 86 kts | 187° |
| 2026-04-15 03:38 | 44.63138 | -124.06118 | 991 ft | 86 kts | 189° |
| 2026-04-15 03:38 | 44.62548 | -124.06089 | 930 ft | 85 kts | 187° |
| 2026-04-15 03:38 | 44.61960 | -124.06096 | 880 ft | 84 kts | 186° |
| 2026-04-15 03:38 | 44.61382 | -124.06085 | 815 ft | 83 kts | 184° |
| 2026-04-15 03:39 | 44.60799 | -124.06063 | 656 ft | 87 kts | 185° |
| 2026-04-15 03:39 | 44.60197 | -124.06030 | 526 ft | 87 kts | 179° |
| 2026-04-15 03:39 | 44.59605 | -124.05994 | 464 ft | 83 kts | 179° |
| 2026-04-15 03:39 | 44.59022 | -124.05962 | 307 ft | 85 kts | 182° |
| 2026-04-15 03:40 | 44.58460 | -124.05922 | 150 ft | 72 kts | 181° |
| 2026-04-15 03:40 | 44.58066 | -124.05895 | 141 ft | 37 kts | 179° |
| 2026-04-15 03:40 | 44.57908 | -124.05932 | 142 ft | 21 kts | 219° |
| 2026-04-15 03:40 | 44.57893 | -124.05988 | 142 ft | 11 kts | 263° |
| 2026-04-15 03:41 | 44.57890 | -124.06154 | 142 ft | 10 kts | 266° |
| 2026-04-15 03:41 | 44.57825 | -124.06164 | 142 ft | 13 kts | 183° |
| 2026-04-15 03:41 | 44.57790 | -124.06250 | 142 ft | 11 kts | 272° |
| 2026-04-15 03:41 | 44.57766 | -124.06261 | 142 ft | 0 kts | 128° |